Sidnaw, MI

6:25 PM EDT on August 27, 2016 (GMT -0400)
MesoWest | | Change Station

Elev 1521 ft 46.48 °N, 88.99 °W | Updated 35 minutes ago

Overcast
Overcast
71 °F
Feels Like 75 °F
N
3
Wind Variable Wind from South
Gusts 7.0 mph

Today
High -- | Low -- °F
--% Chance of Precip.
Yesterday
High -- | Low -- °F
Precip. -- in
Pressure 30.06 in
Visibility 10.0 miles
Clouds Mostly Cloudy 3600 ft
Overcast 4300 ft
Heat Index 75 °F
Dew Point 58 °F
Humidity 65%
Rainfall in
Snow Depth Not available.
7:09 AM 8:42 PM
Waning Crescent, 21% visible
METAR KLNL 272215Z AUTO 00000KT 10SM BKN036 OVC043 20/14 A3006 RMK AO2 T01950139
Pressure 30.06 in
Visibility 10.0 miles
Clouds Mostly Cloudy 3600 ft
Overcast 4300 ft
Heat Index 75 °F
Dew Point 58 °F
Humidity 65%
Rainfall in
Snow Depth Not available.
7:09 AM 8:42 PM
Waning Crescent, 21% visible
METAR KLNL 272215Z AUTO 00000KT 10SM BKN036 OVC043 20/14 A3006 RMK AO2 T01950139

10-Day Weather Forecast

Almanac

Astronomy

Aug. 27, 2016 Rise Set
Actual Time
Civil Twilight
Nautical Twilight
Astronomical Twilight
Moon
Length of Visible Light
Length of Day
Tomorrow will be .
, % of the Moon is Illuminated

Today's Extremes

State Highs State Lows

Community

WunderPhotos

Upload Photos

1,935,455 photos uploaded!

WunderBlog® & News

Nearby

Air Quality

  Air Quality AQ Index Pollutant
Not available.

Snow Depth

Station Depth Elevation

Earthquake Activity

City Distance Mag. Time & Date
Minimum magnitude displayed is 2.5.

Coastal Water Temperatures

Place Temperature

Stations

Nearby Weather Stations

Station Location Temp. Windchill Dew Point Humidity Wind Precip. Elev Updated Type
                   

Watches & Warnings

There are currently no watches in effect.